ラスベガス の空港の天気 - METARとTAF

マッカラン国際空港 ( KLAS / LAS ) - アメリカ ネバダ州ラスベガス
飛行場実況気象(Metar)
観測時間01/19 17:56 PST (01/20 01:56 UTC)
風向・風速静穏 0m/s
視程10km以上
天気現象
全天の8割程度の雲 雲底高度 7620m
気温13.3℃
湿度42%
気圧1024.6hPa
METARKLAS 200156Z 00000KT 10SM BKN250 13/01 A3026 RMK AO2 SLP246 T01330006
過去の天気等 Google飛行場航空写真 Wunderground天気予報

過去48時間のMETAR

飛行場予報(TAF)
発表時間: 1/19 15:32 PST (1/19 23:32 UTC)
予報対象時間: 19日16時 PST ~ 20日22時 PST
風向・風速不定 2m/s
視程10km以上
全天の4割程度の雲 雲底高度 7620m
19日19時 PST から
風向・風速南西 3m/s
視程10km以上
全天の8割程度の雲 雲底高度 7620m
20日4時 PST から
風向・風速不定 3m/s
視程10km以上
全天の8割程度の雲 雲底高度 7620m
20日10時 PST から
風向・風速北東 3m/s
視程10km以上
全天の8割程度の雲 雲底高度 7620m
20日19時 PST から
風向・風速南南西 5m/s
視程10km以上
全天の8割程度の雲 雲底高度 7620m
KLAS 192332Z 2000/2106 VRB04KT P6SM SCT250
FM200300 23005KT P6SM BKN250
FM201200 VRB05KT P6SM BKN250
FM201800 04006KT P6SM BKN250
FM210300 20010KT P6SM BKN250